WOLF12 ESSV-ESPA
Flight info
| Callsign | WOLF12 |
|---|---|
| Flight time | N/A |
| Altitude | 26000 |
| Route | DCT VSN DCT OLGUV DCT SLU |
| Aircraft | SB39/M-SDFGRY/S |
Departure
| Time | 2026-05-07 15:58 |
|---|---|
| Airport | Visby Airport (ESSV) |
Arrival
| Time | N/A |
|---|---|
| Airport | Luleå Airport (ESPA) |
| Time | Latitude | Longitude | Altitude | Speed | Heading |
|---|---|---|---|---|---|
| 2026-05-07 15:54 | 57.67266 | 18.34919 | 156 ft | 0 kts | 150° |
| 2026-05-07 15:56 | 57.67261 | 18.34924 | 156 ft | 4 kts | 150° |
| 2026-05-07 15:56 | 57.67222 | 18.34999 | 156 ft | 13 kts | 141° |
| 2026-05-07 15:57 | 57.67171 | 18.35049 | 156 ft | 7 kts | 153° |
| 2026-05-07 15:57 | 57.67170 | 18.35050 | 156 ft | 0 kts | 153° |
| 2026-05-07 15:57 | 57.67152 | 18.35067 | 156 ft | 8 kts | 153° |
| 2026-05-07 15:57 | 57.67059 | 18.35121 | 156 ft | 18 kts | 169° |
| 2026-05-07 15:58 | 57.66891 | 18.35057 | 155 ft | 69 kts | 201° |
| 2026-05-07 15:58 | 57.65592 | 18.34120 | 598 ft | 291 kts | 201° |
| 2026-05-07 15:58 | 57.63785 | 18.31642 | 2756 ft | 358 kts | 254° |
| 2026-05-07 15:58 | 57.64626 | 18.27032 | 5128 ft | 428 kts | 307° |
| 2026-05-07 15:59 | 57.66507 | 18.22184 | 7507 ft | 490 kts | 307° |
| 2026-05-07 15:59 | 57.68574 | 18.16891 | 9946 ft | 515 kts | 306° |
| 2026-05-07 15:59 | 57.70722 | 18.11389 | 12210 ft | 532 kts | 306° |
| 2026-05-07 15:59 | 57.72925 | 18.05738 | 14611 ft | 553 kts | 305° |
| 2026-05-07 16:00 | 57.75419 | 17.99310 | 17517 ft | 658 kts | 305° |
| 2026-05-07 16:00 | 57.78240 | 17.91996 | 21027 ft | 723 kts | 304° |
| 2026-05-07 16:00 | 57.81279 | 17.84084 | 25123 ft | 770 kts | 304° |
| 2026-05-07 16:00 | 57.84500 | 17.76087 | 26878 ft | 744 kts | 306° |
| 2026-05-07 16:01 | 57.87541 | 17.68657 | 26724 ft | 695 kts | 306° |
| 2026-05-07 16:01 | 57.90421 | 17.61619 | 26417 ft | 663 kts | 306° |
| 2026-05-07 16:01 | 57.93131 | 17.54947 | 26241 ft | 640 kts | 306° |
| 2026-05-07 16:01 | 57.95780 | 17.48379 | 26186 ft | 621 kts | 306° |
| 2026-05-07 16:02 | 57.98358 | 17.41960 | 26155 ft | 608 kts | 306° |
| 2026-05-07 16:02 | 58.00886 | 17.35652 | 26134 ft | 588 kts | 306° |
| 2026-05-07 16:02 | 58.03220 | 17.29839 | 26114 ft | 544 kts | 305° |
| 2026-05-07 16:02 | 58.05516 | 17.24113 | 26121 ft | 546 kts | 305° |
| 2026-05-07 16:03 | 58.07815 | 17.18373 | 26114 ft | 549 kts | 305° |
| 2026-05-07 16:03 | 58.10117 | 17.12623 | 26113 ft | 549 kts | 305° |
| 2026-05-07 16:03 | 58.12423 | 17.06855 | 26102 ft | 550 kts | 305° |
| 2026-05-07 16:03 | 58.13951 | 17.03032 | 26112 ft | 549 kts | 305° |
| 2026-05-07 16:04 | 58.16259 | 16.97255 | 26104 ft | 551 kts | 305° |
| 2026-05-07 16:04 | 58.18569 | 16.91473 | 26111 ft | 550 kts | 305° |
| 2026-05-07 16:04 | 58.20879 | 16.85690 | 26109 ft | 551 kts | 305° |
| 2026-05-07 16:04 | 58.23306 | 16.80065 | 26109 ft | 553 kts | 314° |
| 2026-05-07 16:05 | 58.26428 | 16.75763 | 26136 ft | 560 kts | 329° |
| 2026-05-07 16:05 | 58.29963 | 16.72591 | 26117 ft | 562 kts | 334° |
| 2026-05-07 16:05 | 58.33586 | 16.69777 | 26104 ft | 564 kts | 335° |
| 2026-05-07 16:05 | 58.37245 | 16.67084 | 26108 ft | 564 kts | 336° |
| 2026-05-07 16:06 | 58.40917 | 16.64447 | 26112 ft | 564 kts | 336° |
| 2026-05-07 16:06 | 58.44595 | 16.61837 | 26108 ft | 564 kts | 336° |
| 2026-05-07 16:06 | 58.48276 | 16.59239 | 26110 ft | 564 kts | 336° |
| 2026-05-07 16:06 | 58.51957 | 16.56650 | 26110 ft | 564 kts | 336° |
| 2026-05-07 16:07 | 58.55644 | 16.54065 | 26112 ft | 564 kts | 336° |
| 2026-05-07 16:07 | 58.59333 | 16.51485 | 26109 ft | 564 kts | 336° |
| 2026-05-07 16:07 | 58.63023 | 16.48908 | 26108 ft | 564 kts | 336° |
| 2026-05-07 16:07 | 58.66714 | 16.46334 | 26108 ft | 565 kts | 336° |
| 2026-05-07 16:08 | 58.70411 | 16.43762 | 26104 ft | 565 kts | 336° |
| 2026-05-07 16:08 | 58.74106 | 16.41195 | 26107 ft | 565 kts | 336° |
| 2026-05-07 16:08 | 58.77805 | 16.38629 | 26099 ft | 565 kts | 336° |
| 2026-05-07 16:08 | 58.81503 | 16.36069 | 26099 ft | 565 kts | 336° |
| 2026-05-07 16:09 | 58.85208 | 16.33510 | 26096 ft | 566 kts | 336° |
| 2026-05-07 16:09 | 58.88911 | 16.30959 | 26093 ft | 565 kts | 336° |
| 2026-05-07 16:09 | 58.92617 | 16.28410 | 26089 ft | 565 kts | 336° |
| 2026-05-07 16:09 | 58.96320 | 16.25866 | 26091 ft | 564 kts | 336° |
| 2026-05-07 16:10 | 59.00026 | 16.23326 | 26090 ft | 565 kts | 336° |
| 2026-05-07 16:10 | 59.03728 | 16.20793 | 26084 ft | 564 kts | 336° |
| 2026-05-07 16:10 | 59.07432 | 16.18261 | 26084 ft | 564 kts | 336° |
| 2026-05-07 16:10 | 59.11079 | 16.15771 | 26087 ft | 563 kts | 336° |
| 2026-05-07 16:11 | 59.14781 | 16.13249 | 26092 ft | 564 kts | 336° |
| 2026-05-07 16:11 | 59.18478 | 16.10734 | 26086 ft | 563 kts | 336° |
| 2026-05-07 16:11 | 59.22180 | 16.08220 | 26083 ft | 562 kts | 336° |
| 2026-05-07 16:11 | 59.25875 | 16.05714 | 26086 ft | 562 kts | 336° |
| 2026-05-07 16:12 | 59.29573 | 16.03210 | 26085 ft | 562 kts | 336° |
| 2026-05-07 16:12 | 59.33266 | 16.00716 | 26086 ft | 561 kts | 336° |
| 2026-05-07 16:12 | 59.36960 | 15.98224 | 26086 ft | 562 kts | 336° |
| 2026-05-07 16:12 | 59.40656 | 15.95735 | 26084 ft | 562 kts | 336° |
| 2026-05-07 16:13 | 59.44355 | 15.93247 | 26078 ft | 562 kts | 336° |
| 2026-05-07 16:13 | 59.48052 | 15.90764 | 26077 ft | 562 kts | 336° |
| 2026-05-07 16:13 | 59.51751 | 15.88283 | 26079 ft | 561 kts | 336° |
| 2026-05-07 16:13 | 59.55449 | 15.85805 | 26084 ft | 561 kts | 336° |
| 2026-05-07 16:14 | 59.59149 | 15.83328 | 26082 ft | 562 kts | 336° |
| 2026-05-07 16:14 | 59.62850 | 15.80856 | 26083 ft | 561 kts | 336° |
| 2026-05-07 16:14 | 59.66548 | 15.78389 | 26086 ft | 561 kts | 336° |
| 2026-05-07 16:14 | 59.70245 | 15.75927 | 26089 ft | 561 kts | 336° |
| 2026-05-07 16:15 | 59.73948 | 15.73464 | 26082 ft | 561 kts | 336° |
| 2026-05-07 16:15 | 59.77648 | 15.71009 | 26089 ft | 561 kts | 336° |
| 2026-05-07 16:15 | 59.81227 | 15.68659 | 26084 ft | 508 kts | 336° |
| 2026-05-07 16:15 | 59.84457 | 15.67092 | 26090 ft | 460 kts | 348° |
| 2026-05-07 16:16 | 59.87664 | 15.66856 | 26091 ft | 467 kts | 353° |